sensor_id;sensor_type;location;lat;lon;timestamp;P1;durP1;ratioP1;P2;durP2;ratioP2
42118;SDS011;27783;42.782;23.274;2023-04-03T00:00:53;10.20;;;5.88;;
42118;SDS011;27783;42.782;23.274;2023-04-03T00:03:18;8.40;;;5.47;;
42118;SDS011;27783;42.782;23.274;2023-04-03T00:05:45;5.80;;;3.92;;
42118;SDS011;27783;42.782;23.274;2023-04-03T00:08:11;6.57;;;4.20;;
42118;SDS011;27783;42.782;23.274;2023-04-03T00:10:41;6.70;;;4.30;;
42118;SDS011;27783;42.782;23.274;2023-04-03T00:13:06;5.38;;;3.25;;
42118;SDS011;27783;42.782;23.274;2023-04-03T00:15:33;5.13;;;3.35;;
42118;SDS011;27783;42.782;23.274;2023-04-03T00:18:00;6.80;;;3.83;;
42118;SDS011;27783;42.782;23.274;2023-04-03T00:20:27;4.07;;;3.55;;
42118;SDS011;27783;42.782;23.274;2023-04-03T00:22:55;10.32;;;6.68;;
42118;SDS011;27783;42.782;23.274;2023-04-03T00:27:47;4.80;;;2.95;;
42118;SDS011;27783;42.782;23.274;2023-04-03T00:30:15;8.00;;;3.80;;
42118;SDS011;27783;42.782;23.274;2023-04-03T00:32:42;10.77;;;7.35;;
42118;SDS011;27783;42.782;23.274;2023-04-03T00:35:09;5.38;;;3.92;;
42118;SDS011;27783;42.782;23.274;2023-04-03T00:37:35;4.10;;;3.08;;
42118;SDS011;27783;42.782;23.274;2023-04-03T00:40:02;4.05;;;2.33;;
42118;SDS011;27783;42.782;23.274;2023-04-03T00:42:30;6.57;;;3.60;;
42118;SDS011;27783;42.782;23.274;2023-04-03T00:47:26;5.68;;;3.28;;
42118;SDS011;27783;42.782;23.274;2023-04-03T00:49:54;4.35;;;2.90;;
42118;SDS011;27783;42.782;23.274;2023-04-03T00:52:21;5.78;;;4.13;;
42118;SDS011;27783;42.782;23.274;2023-04-03T00:54:50;12.18;;;9.35;;
42118;SDS011;27783;42.782;23.274;2023-04-03T00:57:19;68.22;;;51.70;;
42118;SDS011;27783;42.782;23.274;2023-04-03T00:59:49;38.83;;;26.52;;
42118;SDS011;27783;42.782;23.274;2023-04-03T01:02:29;41.58;;;32.50;;
42118;SDS011;27783;42.782;23.274;2023-04-03T01:04:55;16.30;;;11.95;;
42118;SDS011;27783;42.782;23.274;2023-04-03T01:07:24;27.67;;;20.50;;
42118;SDS011;27783;42.782;23.274;2023-04-03T01:09:56;9.77;;;7.93;;
42118;SDS011;27783;42.782;23.274;2023-04-03T01:14:52;19.50;;;12.95;;
42118;SDS011;27783;42.782;23.274;2023-04-03T01:17:34;19.88;;;11.48;;
42118;SDS011;27783;42.782;23.274;2023-04-03T01:25:52;43.03;;;22.42;;
42118;SDS011;27783;42.782;23.274;2023-04-03T01:28:27;30.35;;;16.98;;
42118;SDS011;27783;42.782;23.274;2023-04-03T01:33:45;11.63;;;9.02;;
42118;SDS011;27783;42.782;23.274;2023-04-03T01:36:33;12.05;;;9.05;;
42118;SDS011;27783;42.782;23.274;2023-04-03T01:41:26;6.57;;;3.97;;
42118;SDS011;27783;42.782;23.274;2023-04-03T01:44:12;7.10;;;3.60;;
42118;SDS011;27783;42.782;23.274;2023-04-03T01:46:38;6.07;;;4.15;;
42118;SDS011;27783;42.782;23.274;2023-04-03T01:49:09;6.93;;;3.55;;
42118;SDS011;27783;42.782;23.274;2023-04-03T01:51:35;10.27;;;5.93;;
42118;SDS011;27783;42.782;23.274;2023-04-03T01:54:00;68.03;;;26.65;;
42118;SDS011;27783;42.782;23.274;2023-04-03T01:56:27;8.68;;;4.55;;
42118;SDS011;27783;42.782;23.274;2023-04-03T01:58:56;6.00;;;3.33;;
42118;SDS011;27783;42.782;23.274;2023-04-03T02:01:22;6.90;;;3.10;;
42118;SDS011;27783;42.782;23.274;2023-04-03T02:03:49;6.63;;;4.53;;
42118;SDS011;27783;42.782;23.274;2023-04-03T02:06:16;9.88;;;5.75;;
42118;SDS011;27783;42.782;23.274;2023-04-03T02:08:44;4.63;;;4.13;;
42118;SDS011;27783;42.782;23.274;2023-04-03T02:11:11;7.78;;;4.07;;
42118;SDS011;27783;42.782;23.274;2023-04-03T02:13:36;17.02;;;9.75;;
42118;SDS011;27783;42.782;23.274;2023-04-03T02:16:07;10.23;;;7.18;;
42118;SDS011;27783;42.782;23.274;2023-04-03T02:18:37;10.38;;;7.55;;
42118;SDS011;27783;42.782;23.274;2023-04-03T02:21:05;10.95;;;7.60;;
42118;SDS011;27783;42.782;23.274;2023-04-03T02:23:31;12.07;;;9.50;;
42118;SDS011;27783;42.782;23.274;2023-04-03T02:26:04;11.45;;;7.90;;
42118;SDS011;27783;42.782;23.274;2023-04-03T02:28:36;12.60;;;7.10;;
42118;SDS011;27783;42.782;23.274;2023-04-03T02:31:03;16.40;;;9.00;;
42118;SDS011;27783;42.782;23.274;2023-04-03T02:33:32;11.90;;;8.57;;
42118;SDS011;27783;42.782;23.274;2023-04-03T02:36:03;11.38;;;7.72;;
42118;SDS011;27783;42.782;23.274;2023-04-03T02:38:32;9.52;;;6.97;;
42118;SDS011;27783;42.782;23.274;2023-04-03T02:41:01;13.23;;;7.05;;
42118;SDS011;27783;42.782;23.274;2023-04-03T02:43:28;21.75;;;7.25;;
42118;SDS011;27783;42.782;23.274;2023-04-03T02:45:55;11.07;;;7.33;;
42118;SDS011;27783;42.782;23.274;2023-04-03T02:48:24;24.40;;;11.50;;
42118;SDS011;27783;42.782;23.274;2023-04-03T02:50:52;34.30;;;15.88;;
42118;SDS011;27783;42.782;23.274;2023-04-03T02:55:45;12.85;;;7.65;;
42118;SDS011;27783;42.782;23.274;2023-04-03T02:58:13;9.55;;;6.35;;
42118;SDS011;27783;42.782;23.274;2023-04-03T03:00:40;11.82;;;7.38;;
42118;SDS011;27783;42.782;23.274;2023-04-03T03:03:07;7.47;;;4.07;;
42118;SDS011;27783;42.782;23.274;2023-04-03T03:05:42;5.75;;;3.78;;
42118;SDS011;27783;42.782;23.274;2023-04-03T03:08:08;7.40;;;2.75;;
42118;SDS011;27783;42.782;23.274;2023-04-03T03:10:34;4.55;;;2.70;;
42118;SDS011;27783;42.782;23.274;2023-04-03T03:13:02;9.52;;;3.63;;
42118;SDS011;27783;42.782;23.274;2023-04-03T03:15:27;8.80;;;5.57;;
42118;SDS011;27783;42.782;23.274;2023-04-03T03:17:54;12.38;;;9.07;;
42118;SDS011;27783;42.782;23.274;2023-04-03T03:20:22;38.15;;;22.67;;
42118;SDS011;27783;42.782;23.274;2023-04-03T03:22:48;21.00;;;15.23;;
42118;SDS011;27783;42.782;23.274;2023-04-03T03:25:14;15.93;;;11.63;;
42118;SDS011;27783;42.782;23.274;2023-04-03T03:27:41;20.98;;;12.55;;
42118;SDS011;27783;42.782;23.274;2023-04-03T03:30:08;303.92;;;147.80;;
42118;SDS011;27783;42.782;23.274;2023-04-03T03:32:34;87.85;;;45.58;;
42118;SDS011;27783;42.782;23.274;2023-04-03T03:35:01;92.07;;;42.10;;
42118;SDS011;27783;42.782;23.274;2023-04-03T03:37:27;197.38;;;84.28;;
42118;SDS011;27783;42.782;23.274;2023-04-03T03:39:52;448.40;;;161.27;;
42118;SDS011;27783;42.782;23.274;2023-04-03T03:42:19;220.60;;;67.22;;
42118;SDS011;27783;42.782;23.274;2023-04-03T03:44:44;98.63;;;35.88;;
42118;SDS011;27783;42.782;23.274;2023-04-03T03:47:11;95.00;;;34.90;;
42118;SDS011;27783;42.782;23.274;2023-04-03T03:49:38;23.23;;;12.75;;
42118;SDS011;27783;42.782;23.274;2023-04-03T03:52:05;27.83;;;18.75;;
42118;SDS011;27783;42.782;23.274;2023-04-03T03:54:32;35.75;;;23.73;;
42118;SDS011;27783;42.782;23.274;2023-04-03T03:56:59;22.48;;;14.57;;
42118;SDS011;27783;42.782;23.274;2023-04-03T03:59:25;24.98;;;15.52;;
42118;SDS011;27783;42.782;23.274;2023-04-03T04:01:51;16.02;;;12.73;;
42118;SDS011;27783;42.782;23.274;2023-04-03T04:04:20;13.85;;;10.15;;
42118;SDS011;27783;42.782;23.274;2023-04-03T04:06:47;22.77;;;16.98;;
42118;SDS011;27783;42.782;23.274;2023-04-03T04:09:12;332.92;;;183.85;;
42118;SDS011;27783;42.782;23.274;2023-04-03T04:11:39;24.13;;;16.50;;
42118;SDS011;27783;42.782;23.274;2023-04-03T04:14:07;26.07;;;16.70;;
42118;SDS011;27783;42.782;23.274;2023-04-03T04:16:36;22.73;;;17.05;;
42118;SDS011;27783;42.782;23.274;2023-04-03T04:19:03;23.98;;;16.05;;
42118;SDS011;27783;42.782;23.274;2023-04-03T04:21:28;37.20;;;23.10;;
42118;SDS011;27783;42.782;23.274;2023-04-03T04:23:54;21.38;;;15.00;;
42118;SDS011;27783;42.782;23.274;2023-04-03T04:28:46;26.10;;;16.27;;
42118;SDS011;27783;42.782;23.274;2023-04-03T04:31:12;19.70;;;13.48;;
42118;SDS011;27783;42.782;23.274;2023-04-03T04:33:37;15.07;;;12.63;;
42118;SDS011;27783;42.782;23.274;2023-04-03T04:36:03;20.63;;;14.95;;
42118;SDS011;27783;42.782;23.274;2023-04-03T04:38:28;23.17;;;13.80;;
42118;SDS011;27783;42.782;23.274;2023-04-03T04:40:54;24.95;;;14.07;;
42118;SDS011;27783;42.782;23.274;2023-04-03T04:43:19;20.20;;;13.68;;
42118;SDS011;27783;42.782;23.274;2023-04-03T04:45:45;15.05;;;10.93;;
42118;SDS011;27783;42.782;23.274;2023-04-03T04:48:10;22.95;;;14.25;;
42118;SDS011;27783;42.782;23.274;2023-04-03T04:50:36;22.48;;;12.95;;
42118;SDS011;27783;42.782;23.274;2023-04-03T04:53:01;20.77;;;13.52;;
42118;SDS011;27783;42.782;23.274;2023-04-03T04:55:26;25.17;;;13.05;;
42118;SDS011;27783;42.782;23.274;2023-04-03T04:57:52;31.60;;;14.15;;
42118;SDS011;27783;42.782;23.274;2023-04-03T05:00:17;15.05;;;10.95;;
42118;SDS011;27783;42.782;23.274;2023-04-03T05:02:43;23.25;;;11.55;;
42118;SDS011;27783;42.782;23.274;2023-04-03T05:05:08;21.02;;;13.45;;
42118;SDS011;27783;42.782;23.274;2023-04-03T05:07:34;22.02;;;12.43;;
42118;SDS011;27783;42.782;23.274;2023-04-03T05:10:01;20.15;;;13.57;;
42118;SDS011;27783;42.782;23.274;2023-04-03T05:12:27;17.42;;;12.32;;
42118;SDS011;27783;42.782;23.274;2023-04-03T05:14:53;18.42;;;13.60;;
42118;SDS011;27783;42.782;23.274;2023-04-03T05:17:18;25.83;;;16.63;;
42118;SDS011;27783;42.782;23.274;2023-04-03T05:19:43;26.00;;;16.40;;
42118;SDS011;27783;42.782;23.274;2023-04-03T05:22:09;23.90;;;16.48;;
42118;SDS011;27783;42.782;23.274;2023-04-03T05:24:35;29.35;;;25.83;;
42118;SDS011;27783;42.782;23.274;2023-04-03T05:27:00;64.43;;;44.25;;
42118;SDS011;27783;42.782;23.274;2023-04-03T05:29:26;19.40;;;15.02;;
42118;SDS011;27783;42.782;23.274;2023-04-03T05:31:52;18.05;;;13.55;;
42118;SDS011;27783;42.782;23.274;2023-04-03T05:34:17;18.40;;;14.15;;
42118;SDS011;27783;42.782;23.274;2023-04-03T05:36:43;18.10;;;14.52;;
42118;SDS011;27783;42.782;23.274;2023-04-03T05:39:09;22.67;;;15.10;;
42118;SDS011;27783;42.782;23.274;2023-04-03T05:41:34;19.38;;;15.30;;
42118;SDS011;27783;42.782;23.274;2023-04-03T05:43:59;23.83;;;16.48;;
42118;SDS011;27783;42.782;23.274;2023-04-03T05:46:25;21.20;;;17.25;;
42118;SDS011;27783;42.782;23.274;2023-04-03T05:48:51;23.95;;;17.90;;
42118;SDS011;27783;42.782;23.274;2023-04-03T05:51:22;37.28;;;27.13;;
42118;SDS011;27783;42.782;23.274;2023-04-03T05:53:51;20.27;;;15.25;;
42118;SDS011;27783;42.782;23.274;2023-04-03T05:56:20;22.10;;;16.70;;
42118;SDS011;27783;42.782;23.274;2023-04-03T05:58:45;31.80;;;18.13;;
42118;SDS011;27783;42.782;23.274;2023-04-03T06:01:11;108.78;;;85.45;;
42118;SDS011;27783;42.782;23.274;2023-04-03T06:03:36;85.78;;;68.50;;
42118;SDS011;27783;42.782;23.274;2023-04-03T06:06:02;48.47;;;35.85;;
42118;SDS011;27783;42.782;23.274;2023-04-03T06:08:29;39.33;;;28.67;;
42118;SDS011;27783;42.782;23.274;2023-04-03T06:10:54;29.70;;;19.90;;
42118;SDS011;27783;42.782;23.274;2023-04-03T06:13:21;27.98;;;19.60;;
42118;SDS011;27783;42.782;23.274;2023-04-03T06:15:47;26.15;;;20.75;;
42118;SDS011;27783;42.782;23.274;2023-04-03T06:18:13;26.20;;;21.85;;
42118;SDS011;27783;42.782;23.274;2023-04-03T06:20:38;19.42;;;16.50;;
42118;SDS011;27783;42.782;23.274;2023-04-03T06:23:03;16.95;;;15.15;;
42118;SDS011;27783;42.782;23.274;2023-04-03T06:25:29;41.67;;;23.65;;
42118;SDS011;27783;42.782;23.274;2023-04-03T06:27:54;44.42;;;29.40;;
42118;SDS011;27783;42.782;23.274;2023-04-03T06:30:22;39.67;;;29.45;;
42118;SDS011;27783;42.782;23.274;2023-04-03T06:32:48;77.35;;;39.03;;
42118;SDS011;27783;42.782;23.274;2023-04-03T06:35:13;20.58;;;18.25;;
42118;SDS011;27783;42.782;23.274;2023-04-03T06:37:39;22.35;;;15.20;;
42118;SDS011;27783;42.782;23.274;2023-04-03T06:40:04;20.58;;;15.60;;
42118;SDS011;27783;42.782;23.274;2023-04-03T06:42:30;22.70;;;17.23;;
42118;SDS011;27783;42.782;23.274;2023-04-03T06:44:56;18.73;;;15.18;;
42118;SDS011;27783;42.782;23.274;2023-04-03T06:47:21;19.10;;;14.60;;
42118;SDS011;27783;42.782;23.274;2023-04-03T06:49:47;16.48;;;13.43;;
42118;SDS011;27783;42.782;23.274;2023-04-03T06:52:12;14.27;;;12.85;;
42118;SDS011;27783;42.782;23.274;2023-04-03T06:54:38;12.63;;;11.32;;
42118;SDS011;27783;42.782;23.274;2023-04-03T06:57:04;14.25;;;10.60;;
42118;SDS011;27783;42.782;23.274;2023-04-03T06:59:30;11.95;;;10.43;;
42118;SDS011;27783;42.782;23.274;2023-04-03T07:01:55;13.45;;;12.05;;
42118;SDS011;27783;42.782;23.274;2023-04-03T07:04:21;11.43;;;10.10;;
42118;SDS011;27783;42.782;23.274;2023-04-03T07:06:46;13.75;;;12.35;;
42118;SDS011;27783;42.782;23.274;2023-04-03T07:09:12;12.32;;;9.75;;
42118;SDS011;27783;42.782;23.274;2023-04-03T07:11:38;16.05;;;11.88;;
42118;SDS011;27783;42.782;23.274;2023-04-03T07:14:04;26.35;;;18.85;;
42118;SDS011;27783;42.782;23.274;2023-04-03T07:16:29;17.73;;;14.55;;
42118;SDS011;27783;42.782;23.274;2023-04-03T07:18:57;14.77;;;12.75;;
42118;SDS011;27783;42.782;23.274;2023-04-03T07:21:24;11.73;;;9.87;;
42118;SDS011;27783;42.782;23.274;2023-04-03T07:23:49;22.73;;;9.80;;
42118;SDS011;27783;42.782;23.274;2023-04-03T07:26:15;11.35;;;9.13;;
42118;SDS011;27783;42.782;23.274;2023-04-03T07:28:41;9.60;;;8.70;;
42118;SDS011;27783;42.782;23.274;2023-04-03T07:31:07;7.93;;;7.15;;
42118;SDS011;27783;42.782;23.274;2023-04-03T07:33:36;7.22;;;6.53;;
42118;SDS011;27783;42.782;23.274;2023-04-03T07:36:02;7.63;;;6.85;;
42118;SDS011;27783;42.782;23.274;2023-04-03T07:38:29;10.10;;;8.38;;
42118;SDS011;27783;42.782;23.274;2023-04-03T07:40:55;9.00;;;8.10;;
42118;SDS011;27783;42.782;23.274;2023-04-03T07:43:21;10.75;;;7.93;;
42118;SDS011;27783;42.782;23.274;2023-04-03T07:45:47;13.05;;;10.55;;
42118;SDS011;27783;42.782;23.274;2023-04-03T07:48:16;7.10;;;6.47;;
42118;SDS011;27783;42.782;23.274;2023-04-03T07:50:42;15.70;;;14.40;;
42118;SDS011;27783;42.782;23.274;2023-04-03T07:53:08;8.25;;;7.47;;
42118;SDS011;27783;42.782;23.274;2023-04-03T07:55:34;7.88;;;7.18;;
42118;SDS011;27783;42.782;23.274;2023-04-03T07:58:07;8.60;;;7.75;;
42118;SDS011;27783;42.782;23.274;2023-04-03T08:00:33;30.90;;;27.88;;
42118;SDS011;27783;42.782;23.274;2023-04-03T08:02:59;10.65;;;7.97;;
42118;SDS011;27783;42.782;23.274;2023-04-03T08:05:24;9.70;;;8.90;;
42118;SDS011;27783;42.782;23.274;2023-04-03T08:07:50;15.75;;;14.48;;
42118;SDS011;27783;42.782;23.274;2023-04-03T08:10:15;5.55;;;4.50;;
42118;SDS011;27783;42.782;23.274;2023-04-03T08:12:41;7.13;;;6.43;;
42118;SDS011;27783;42.782;23.274;2023-04-03T08:15:07;9.38;;;6.95;;
42118;SDS011;27783;42.782;23.274;2023-04-03T08:17:33;6.60;;;5.72;;
42118;SDS011;27783;42.782;23.274;2023-04-03T08:19:59;6.05;;;4.97;;
42118;SDS011;27783;42.782;23.274;2023-04-03T08:22:25;57.90;;;36.30;;
42118;SDS011;27783;42.782;23.274;2023-04-03T08:24:51;5.00;;;4.57;;
42118;SDS011;27783;42.782;23.274;2023-04-03T08:27:16;5.65;;;5.05;;
42118;SDS011;27783;42.782;23.274;2023-04-03T08:29:41;4.85;;;4.45;;
42118;SDS011;27783;42.782;23.274;2023-04-03T08:32:07;4.30;;;3.90;;
42118;SDS011;27783;42.782;23.274;2023-04-03T08:34:32;4.68;;;4.18;;
42118;SDS011;27783;42.782;23.274;2023-04-03T08:37:03;9.65;;;6.13;;
42118;SDS011;27783;42.782;23.274;2023-04-03T08:39:28;6.72;;;5.32;;
42118;SDS011;27783;42.782;23.274;2023-04-03T08:41:55;6.22;;;5.63;;
42118;SDS011;27783;42.782;23.274;2023-04-03T08:47:12;7.10;;;6.30;;
42118;SDS011;27783;42.782;23.274;2023-04-03T08:49:47;7.13;;;6.53;;
42118;SDS011;27783;42.782;23.274;2023-04-03T08:52:34;10.75;;;8.30;;
42118;SDS011;27783;42.782;23.274;2023-04-03T08:55:06;7.93;;;7.22;;
42118;SDS011;27783;42.782;23.274;2023-04-03T08:57:41;7.10;;;6.40;;
42118;SDS011;27783;42.782;23.274;2023-04-03T09:00:25;9.55;;;5.53;;
42118;SDS011;27783;42.782;23.274;2023-04-03T09:02:54;7.40;;;6.70;;
42118;SDS011;27783;42.782;23.274;2023-04-03T09:07:57;9.18;;;8.30;;
42118;SDS011;27783;42.782;23.274;2023-04-03T09:10:29;15.10;;;13.73;;
42118;SDS011;27783;42.782;23.274;2023-04-03T09:15:48;11.80;;;10.73;;
42118;SDS011;27783;42.782;23.274;2023-04-03T09:18:15;9.70;;;8.65;;
42118;SDS011;27783;42.782;23.274;2023-04-03T09:23:39;11.77;;;10.87;;
42118;SDS011;27783;42.782;23.274;2023-04-03T09:26:08;9.57;;;8.68;;
42118;SDS011;27783;42.782;23.274;2023-04-03T09:28:42;9.68;;;8.75;;
42118;SDS011;27783;42.782;23.274;2023-04-03T09:31:14;8.23;;;7.45;;
42118;SDS011;27783;42.782;23.274;2023-04-03T09:33:44;10.23;;;9.40;;
42118;SDS011;27783;42.782;23.274;2023-04-03T09:36:10;7.32;;;6.63;;
42118;SDS011;27783;42.782;23.274;2023-04-03T09:38:36;9.48;;;7.03;;
42118;SDS011;27783;42.782;23.274;2023-04-03T09:43:28;12.85;;;10.10;;
42118;SDS011;27783;42.782;23.274;2023-04-03T09:48:49;20.90;;;15.50;;
42118;SDS011;27783;42.782;23.274;2023-04-03T09:51:16;8.85;;;6.35;;
42118;SDS011;27783;42.782;23.274;2023-04-03T09:53:43;11.43;;;10.43;;
42118;SDS011;27783;42.782;23.274;2023-04-03T09:58:39;9.07;;;6.25;;
42118;SDS011;27783;42.782;23.274;2023-04-03T10:01:31;5.28;;;4.38;;
42118;SDS011;27783;42.782;23.274;2023-04-03T10:04:14;7.40;;;5.55;;
42118;SDS011;27783;42.782;23.274;2023-04-03T10:06:45;8.65;;;6.60;;
42118;SDS011;27783;42.782;23.274;2023-04-03T10:09:24;14.90;;;13.40;;
42118;SDS011;27783;42.782;23.274;2023-04-03T10:11:57;7.18;;;6.47;;
42118;SDS011;27783;42.782;23.274;2023-04-03T10:14:26;7.35;;;5.95;;
42118;SDS011;27783;42.782;23.274;2023-04-03T10:17:09;5.50;;;5.10;;
42118;SDS011;27783;42.782;23.274;2023-04-03T10:44:32;16.55;;;13.98;;
42118;SDS011;27783;42.782;23.274;2023-04-03T10:47:39;11.40;;;6.82;;
42118;SDS011;27783;42.782;23.274;2023-04-03T10:53:39;9.55;;;6.85;;
42118;SDS011;27783;42.782;23.274;2023-04-03T10:59:16;9.60;;;8.45;;
42118;SDS011;27783;42.782;23.274;2023-04-03T11:01:45;8.23;;;6.47;;
42118;SDS011;27783;42.782;23.274;2023-04-03T11:04:16;10.10;;;6.25;;
42118;SDS011;27783;42.782;23.274;2023-04-03T11:07:33;6.75;;;6.13;;
42118;SDS011;27783;42.782;23.274;2023-04-03T11:09:40;10.18;;;8.98;;
42118;SDS011;27783;42.782;23.274;2023-04-03T11:15:16;8.85;;;7.95;;
42118;SDS011;27783;42.782;23.274;2023-04-03T11:23:46;5.22;;;3.83;;
42118;SDS011;27783;42.782;23.274;2023-04-03T11:26:13;4.80;;;3.83;;
42118;SDS011;27783;42.782;23.274;2023-04-03T11:28:42;4.78;;;4.20;;
42118;SDS011;27783;42.782;23.274;2023-04-03T11:34:08;11.25;;;4.35;;
42118;SDS011;27783;42.782;23.274;2023-04-03T11:36:48;10.50;;;5.35;;
42118;SDS011;27783;42.782;23.274;2023-04-03T11:39:38;7.30;;;5.65;;
42118;SDS011;27783;42.782;23.274;2023-04-03T11:47:47;7.05;;;4.45;;
42118;SDS011;27783;42.782;23.274;2023-04-03T12:06:42;4.80;;;4.40;;
42118;SDS011;27783;42.782;23.274;2023-04-03T12:26:34;4.82;;;3.53;;
42118;SDS011;27783;42.782;23.274;2023-04-03T12:29:10;5.85;;;4.22;;
42118;SDS011;27783;42.782;23.274;2023-04-03T12:54:04;16.02;;;14.57;;
42118;SDS011;27783;42.782;23.274;2023-04-03T12:56:48;15.65;;;14.10;;
42118;SDS011;27783;42.782;23.274;2023-04-03T13:01:53;15.50;;;14.30;;
42118;SDS011;27783;42.782;23.274;2023-04-03T13:04:22;10.65;;;9.75;;
42118;SDS011;27783;42.782;23.274;2023-04-03T13:06:48;9.43;;;8.55;;
42118;SDS011;27783;42.782;23.274;2023-04-03T13:09:30;12.05;;;10.93;;
42118;SDS011;27783;42.782;23.274;2023-04-03T13:14:36;10.02;;;9.23;;
42118;SDS011;27783;42.782;23.274;2023-04-03T13:17:11;8.43;;;7.05;;
42118;SDS011;27783;42.782;23.274;2023-04-03T13:19:39;7.20;;;6.65;;
42118;SDS011;27783;42.782;23.274;2023-04-03T13:22:21;8.13;;;7.23;;
42118;SDS011;27783;42.782;23.274;2023-04-03T13:24:55;6.30;;;5.40;;
42118;SDS011;27783;42.782;23.274;2023-04-03T13:27:28;5.20;;;4.80;;
42118;SDS011;27783;42.782;23.274;2023-04-03T13:32:23;5.30;;;3.97;;
42118;SDS011;27783;42.782;23.274;2023-04-03T13:34:51;6.45;;;4.85;;
42118;SDS011;27783;42.782;23.274;2023-04-03T13:39:45;7.35;;;5.18;;
42118;SDS011;27783;42.782;23.274;2023-04-03T13:42:41;5.88;;;5.28;;
42118;SDS011;27783;42.782;23.274;2023-04-03T13:47:40;8.85;;;7.95;;
42118;SDS011;27783;42.782;23.274;2023-04-03T13:52:41;9.57;;;6.85;;
42118;SDS011;27783;42.782;23.274;2023-04-03T13:55:31;5.90;;;3.83;;
42118;SDS011;27783;42.782;23.274;2023-04-03T13:58:19;9.65;;;7.85;;
42118;SDS011;27783;42.782;23.274;2023-04-03T14:00:51;9.60;;;8.63;;
42118;SDS011;27783;42.782;23.274;2023-04-03T14:06:53;14.68;;;13.18;;
42118;SDS011;27783;42.782;23.274;2023-04-03T14:11:48;6.70;;;6.05;;
42118;SDS011;27783;42.782;23.274;2023-04-03T14:14:20;7.40;;;4.80;;
42118;SDS011;27783;42.782;23.274;2023-04-03T14:16:55;12.95;;;11.95;;
42118;SDS011;27783;42.782;23.274;2023-04-03T14:21:54;15.13;;;13.73;;
42118;SDS011;27783;42.782;23.274;2023-04-03T14:24:21;4.13;;;3.83;;
42118;SDS011;27783;42.782;23.274;2023-04-03T14:26:47;3.72;;;3.15;;
42118;SDS011;27783;42.782;23.274;2023-04-03T14:29:14;3.38;;;3.10;;
42118;SDS011;27783;42.782;23.274;2023-04-03T14:31:42;4.35;;;3.75;;
42118;SDS011;27783;42.782;23.274;2023-04-03T14:34:21;5.63;;;4.72;;
42118;SDS011;27783;42.782;23.274;2023-04-03T14:36:50;3.53;;;3.27;;
42118;SDS011;27783;42.782;23.274;2023-04-03T14:39:18;5.90;;;3.63;;
42118;SDS011;27783;42.782;23.274;2023-04-03T14:41:44;6.72;;;4.63;;
42118;SDS011;27783;42.782;23.274;2023-04-03T14:44:12;4.50;;;4.20;;
42118;SDS011;27783;42.782;23.274;2023-04-03T14:46:38;5.70;;;4.30;;
42118;SDS011;27783;42.782;23.274;2023-04-03T14:49:26;7.05;;;5.32;;
42118;SDS011;27783;42.782;23.274;2023-04-03T14:51:55;9.52;;;8.75;;
42118;SDS011;27783;42.782;23.274;2023-04-03T14:54:23;12.82;;;10.10;;
42118;SDS011;27783;42.782;23.274;2023-04-03T14:56:58;147.20;;;117.38;;
42118;SDS011;27783;42.782;23.274;2023-04-03T14:59:25;216.52;;;159.38;;
42118;SDS011;27783;42.782;23.274;2023-04-03T15:01:51;347.50;;;271.38;;
42118;SDS011;27783;42.782;23.274;2023-04-03T15:04:18;408.23;;;299.75;;
42118;SDS011;27783;42.782;23.274;2023-04-03T15:06:46;136.15;;;101.60;;
42118;SDS011;27783;42.782;23.274;2023-04-03T15:09:23;143.50;;;117.40;;
42118;SDS011;27783;42.782;23.274;2023-04-03T15:11:53;18.30;;;16.38;;
42118;SDS011;27783;42.782;23.274;2023-04-03T15:14:21;6.78;;;6.07;;
42118;SDS011;27783;42.782;23.274;2023-04-03T15:19:14;10.85;;;9.82;;
42118;SDS011;27783;42.782;23.274;2023-04-03T15:21:42;21.80;;;16.52;;
42118;SDS011;27783;42.782;23.274;2023-04-03T15:24:12;26.80;;;24.20;;
42118;SDS011;27783;42.782;23.274;2023-04-03T15:26:40;14.95;;;13.57;;
42118;SDS011;27783;42.782;23.274;2023-04-03T15:29:06;13.05;;;12.05;;
42118;SDS011;27783;42.782;23.274;2023-04-03T15:31:36;21.70;;;15.93;;
42118;SDS011;27783;42.782;23.274;2023-04-03T15:34:04;16.50;;;15.07;;
42118;SDS011;27783;42.782;23.274;2023-04-03T15:39:06;18.58;;;16.88;;
42118;SDS011;27783;42.782;23.274;2023-04-03T15:41:32;18.67;;;16.83;;
42118;SDS011;27783;42.782;23.274;2023-04-03T15:43:57;19.08;;;17.35;;
42118;SDS011;27783;42.782;23.274;2023-04-03T15:46:23;23.67;;;20.80;;
42118;SDS011;27783;42.782;23.274;2023-04-03T15:48:51;23.27;;;20.77;;
42118;SDS011;27783;42.782;23.274;2023-04-03T15:51:19;23.55;;;20.65;;
42118;SDS011;27783;42.782;23.274;2023-04-03T15:53:45;28.27;;;25.25;;
42118;SDS011;27783;42.782;23.274;2023-04-03T15:56:13;25.20;;;22.42;;
42118;SDS011;27783;42.782;23.274;2023-04-03T15:58:40;24.73;;;22.42;;
42118;SDS011;27783;42.782;23.274;2023-04-03T16:01:08;23.88;;;21.75;;
42118;SDS011;27783;42.782;23.274;2023-04-03T16:03:36;23.95;;;21.63;;
42118;SDS011;27783;42.782;23.274;2023-04-03T16:06:03;19.77;;;18.08;;
42118;SDS011;27783;42.782;23.274;2023-04-03T16:08:34;21.77;;;19.77;;
42118;SDS011;27783;42.782;23.274;2023-04-03T16:11:01;18.85;;;17.05;;
42118;SDS011;27783;42.782;23.274;2023-04-03T16:13:31;18.98;;;17.02;;
42118;SDS011;27783;42.782;23.274;2023-04-03T16:15:58;17.83;;;16.08;;
42118;SDS011;27783;42.782;23.274;2023-04-03T16:18:25;16.60;;;15.18;;
42118;SDS011;27783;42.782;23.274;2023-04-03T16:20:52;18.92;;;17.25;;
42118;SDS011;27783;42.782;23.274;2023-04-03T16:23:19;18.17;;;16.60;;
42118;SDS011;27783;42.782;23.274;2023-04-03T16:25:47;21.63;;;19.45;;
42118;SDS011;27783;42.782;23.274;2023-04-03T16:28:16;13.55;;;12.38;;
42118;SDS011;27783;42.782;23.274;2023-04-03T16:30:44;14.05;;;12.85;;
42118;SDS011;27783;42.782;23.274;2023-04-03T16:33:13;13.25;;;12.13;;
42118;SDS011;27783;42.782;23.274;2023-04-03T16:35:41;18.38;;;16.55;;
42118;SDS011;27783;42.782;23.274;2023-04-03T16:38:14;20.90;;;18.92;;
42118;SDS011;27783;42.782;23.274;2023-04-03T16:40:40;32.20;;;25.30;;
42118;SDS011;27783;42.782;23.274;2023-04-03T16:43:09;35.08;;;28.95;;
42118;SDS011;27783;42.782;23.274;2023-04-03T16:45:35;45.67;;;34.87;;
42118;SDS011;27783;42.782;23.274;2023-04-03T16:48:02;46.65;;;41.70;;
42118;SDS011;27783;42.782;23.274;2023-04-03T16:50:32;33.75;;;30.33;;
42118;SDS011;27783;42.782;23.274;2023-04-03T16:53:05;22.75;;;20.77;;
42118;SDS011;27783;42.782;23.274;2023-04-03T16:55:36;19.05;;;17.55;;
42118;SDS011;27783;42.782;23.274;2023-04-03T16:58:02;26.02;;;23.50;;
42118;SDS011;27783;42.782;23.274;2023-04-03T17:00:30;36.60;;;32.85;;
42118;SDS011;27783;42.782;23.274;2023-04-03T17:03:00;38.70;;;34.63;;
42118;SDS011;27783;42.782;23.274;2023-04-03T17:05:54;64.97;;;58.38;;
42118;SDS011;27783;42.782;23.274;2023-04-03T17:08:48;45.25;;;40.42;;
42118;SDS011;27783;42.782;23.274;2023-04-03T17:11:18;65.32;;;58.33;;
42118;SDS011;27783;42.782;23.274;2023-04-03T17:13:54;78.63;;;66.68;;
42118;SDS011;27783;42.782;23.274;2023-04-03T17:16:21;47.00;;;40.38;;
42118;SDS011;27783;42.782;23.274;2023-04-03T17:18:48;110.30;;;98.13;;
42118;SDS011;27783;42.782;23.274;2023-04-03T17:21:15;90.43;;;80.70;;
42118;SDS011;27783;42.782;23.274;2023-04-03T17:23:42;65.15;;;57.90;;